sensor_id;sensor_type;location;lat;lon;timestamp;temperature;humidity
46055;DHT22;31788;6.954;-71.872;2023-01-05T00:01:09;25.30;99.00
46055;DHT22;31788;6.954;-71.872;2023-01-05T00:03:37;25.30;99.00
46055;DHT22;31788;6.954;-71.872;2023-01-05T00:06:10;25.30;98.90
46055;DHT22;31788;6.954;-71.872;2023-01-05T00:08:37;25.30;99.00
46055;DHT22;31788;6.954;-71.872;2023-01-05T00:11:26;25.30;99.00
46055;DHT22;31788;6.954;-71.872;2023-01-05T00:14:30;25.30;98.90
46055;DHT22;31788;6.954;-71.872;2023-01-05T00:17:18;25.20;98.90
46055;DHT22;31788;6.954;-71.872;2023-01-05T00:20:05;25.20;98.90
46055;DHT22;31788;6.954;-71.872;2023-01-05T00:22:52;25.20;99.10
46055;DHT22;31788;6.954;-71.872;2023-01-05T00:25:27;25.20;98.70
46055;DHT22;31788;6.954;-71.872;2023-01-05T00:27:54;25.30;98.80
46055;DHT22;31788;6.954;-71.872;2023-01-05T00:30:29;25.20;98.80
46055;DHT22;31788;6.954;-71.872;2023-01-05T00:32:56;25.30;99.00
46055;DHT22;31788;6.954;-71.872;2023-01-05T00:35:23;25.20;98.90
46055;DHT22;31788;6.954;-71.872;2023-01-05T00:37:51;25.30;98.90
46055;DHT22;31788;6.954;-71.872;2023-01-05T00:40:19;25.30;98.90
46055;DHT22;31788;6.954;-71.872;2023-01-05T00:42:46;25.30;98.90
46055;DHT22;31788;6.954;-71.872;2023-01-05T00:45:15;25.30;98.90
46055;DHT22;31788;6.954;-71.872;2023-01-05T00:47:42;25.30;98.80
46055;DHT22;31788;6.954;-71.872;2023-01-05T00:50:12;25.30;98.80
46055;DHT22;31788;6.954;-71.872;2023-01-05T00:52:38;25.30;98.50
46055;DHT22;31788;6.954;-71.872;2023-01-05T00:55:05;25.20;98.50
46055;DHT22;31788;6.954;-71.872;2023-01-05T00:57:32;25.20;98.20
46055;DHT22;31788;6.954;-71.872;2023-01-05T00:59:59;25.20;98.40
46055;DHT22;31788;6.954;-71.872;2023-01-05T01:02:28;25.20;98.50
46055;DHT22;31788;6.954;-71.872;2023-01-05T01:04:55;25.20;98.40
46055;DHT22;31788;6.954;-71.872;2023-01-05T01:07:24;25.10;98.30
46055;DHT22;31788;6.954;-71.872;2023-01-05T01:09:50;25.20;98.20
46055;DHT22;31788;6.954;-71.872;2023-01-05T01:12:17;25.10;98.30
46055;DHT22;31788;6.954;-71.872;2023-01-05T01:14:47;25.20;98.70
46055;DHT22;31788;6.954;-71.872;2023-01-05T01:17:15;25.10;98.80
46055;DHT22;31788;6.954;-71.872;2023-01-05T01:19:42;25.10;98.70
46055;DHT22;31788;6.954;-71.872;2023-01-05T01:22:11;25.10;98.80
46055;DHT22;31788;6.954;-71.872;2023-01-05T01:24:38;25.10;98.80
46055;DHT22;31788;6.954;-71.872;2023-01-05T01:27:05;25.10;99.00
46055;DHT22;31788;6.954;-71.872;2023-01-05T01:29:32;25.10;98.70
46055;DHT22;31788;6.954;-71.872;2023-01-05T01:32:00;25.10;98.60
46055;DHT22;31788;6.954;-71.872;2023-01-05T01:34:27;25.10;98.20
46055;DHT22;31788;6.954;-71.872;2023-01-05T01:36:56;25.10;98.00
46055;DHT22;31788;6.954;-71.872;2023-01-05T01:39:23;25.10;97.90
46055;DHT22;31788;6.954;-71.872;2023-01-05T01:41:49;25.10;97.70
46055;DHT22;31788;6.954;-71.872;2023-01-05T01:45:34;25.10;97.80
46055;DHT22;31788;6.954;-71.872;2023-01-05T01:47:41;25.10;97.90
46055;DHT22;31788;6.954;-71.872;2023-01-05T01:50:30;25.10;97.90
46055;DHT22;31788;6.954;-71.872;2023-01-05T01:53:01;25.10;98.00
46055;DHT22;31788;6.954;-71.872;2023-01-05T01:55:29;25.10;97.70
46055;DHT22;31788;6.954;-71.872;2023-01-05T01:57:57;25.10;97.90
46055;DHT22;31788;6.954;-71.872;2023-01-05T02:00:25;25.10;97.90
46055;DHT22;31788;6.954;-71.872;2023-01-05T02:02:54;25.10;97.80
46055;DHT22;31788;6.954;-71.872;2023-01-05T02:05:30;25.10;97.70
46055;DHT22;31788;6.954;-71.872;2023-01-05T02:07:58;25.10;98.00
46055;DHT22;31788;6.954;-71.872;2023-01-05T02:18:56;25.10;98.00
46055;DHT22;31788;6.954;-71.872;2023-01-05T02:21:29;25.10;97.80
46055;DHT22;31788;6.954;-71.872;2023-01-05T02:35:05;25.00;97.70
46055;DHT22;31788;6.954;-71.872;2023-01-05T02:37:46;25.00;97.70
46055;DHT22;31788;6.954;-71.872;2023-01-05T02:40:17;25.00;97.90
46055;DHT22;31788;6.954;-71.872;2023-01-05T02:42:48;25.00;98.10
46055;DHT22;31788;6.954;-71.872;2023-01-05T02:45:16;25.00;97.70
46055;DHT22;31788;6.954;-71.872;2023-01-05T02:47:44;25.00;97.60
46055;DHT22;31788;6.954;-71.872;2023-01-05T02:51:18;25.00;97.80
46055;DHT22;31788;6.954;-71.872;2023-01-05T02:55:52;25.00;97.90
46055;DHT22;31788;6.954;-71.872;2023-01-05T02:59:02;25.00;98.10
46055;DHT22;31788;6.954;-71.872;2023-01-05T03:01:28;25.00;97.80
46055;DHT22;31788;6.954;-71.872;2023-01-05T03:06:46;24.90;98.00
46055;DHT22;31788;6.954;-71.872;2023-01-05T03:09:17;25.00;98.10
46055;DHT22;31788;6.954;-71.872;2023-01-05T03:17:21;24.90;98.10
46055;DHT22;31788;6.954;-71.872;2023-01-05T03:19:52;24.90;98.20
46055;DHT22;31788;6.954;-71.872;2023-01-05T03:22:28;24.90;98.20
46055;DHT22;31788;6.954;-71.872;2023-01-05T03:25:16;24.90;98.20
46055;DHT22;31788;6.954;-71.872;2023-01-05T03:28:03;24.90;98.30
46055;DHT22;31788;6.954;-71.872;2023-01-05T03:34:08;24.90;98.40
46055;DHT22;31788;6.954;-71.872;2023-01-05T03:37:02;24.90;98.10
46055;DHT22;31788;6.954;-71.872;2023-01-05T03:39:31;24.90;98.10
46055;DHT22;31788;6.954;-71.872;2023-01-05T03:41:59;24.80;98.20
46055;DHT22;31788;6.954;-71.872;2023-01-05T03:44:26;24.90;98.10
46055;DHT22;31788;6.954;-71.872;2023-01-05T03:46:52;24.90;98.20
46055;DHT22;31788;6.954;-71.872;2023-01-05T03:49:19;24.90;98.10
46055;DHT22;31788;6.954;-71.872;2023-01-05T03:51:46;24.90;98.30
46055;DHT22;31788;6.954;-71.872;2023-01-05T03:54:12;24.90;97.80
46055;DHT22;31788;6.954;-71.872;2023-01-05T03:56:39;24.90;98.00
46055;DHT22;31788;6.954;-71.872;2023-01-05T03:59:05;24.90;98.00
46055;DHT22;31788;6.954;-71.872;2023-01-05T04:01:32;24.90;98.00
46055;DHT22;31788;6.954;-71.872;2023-01-05T04:03:58;24.90;97.80
46055;DHT22;31788;6.954;-71.872;2023-01-05T04:06:25;24.80;97.90
46055;DHT22;31788;6.954;-71.872;2023-01-05T04:08:52;24.80;97.80
46055;DHT22;31788;6.954;-71.872;2023-01-05T04:11:20;24.90;98.10
46055;DHT22;31788;6.954;-71.872;2023-01-05T04:13:47;24.90;97.90
46055;DHT22;31788;6.954;-71.872;2023-01-05T04:16:13;24.90;97.90
46055;DHT22;31788;6.954;-71.872;2023-01-05T04:18:40;24.90;98.00
46055;DHT22;31788;6.954;-71.872;2023-01-05T04:21:06;24.90;98.10
46055;DHT22;31788;6.954;-71.872;2023-01-05T04:23:34;24.80;97.90
46055;DHT22;31788;6.954;-71.872;2023-01-05T04:26:00;24.90;98.10
46055;DHT22;31788;6.954;-71.872;2023-01-05T04:28:27;24.90;97.90
46055;DHT22;31788;6.954;-71.872;2023-01-05T04:30:54;24.90;98.10
46055;DHT22;31788;6.954;-71.872;2023-01-05T04:33:22;24.90;97.80
46055;DHT22;31788;6.954;-71.872;2023-01-05T04:35:49;24.90;97.80
46055;DHT22;31788;6.954;-71.872;2023-01-05T04:38:16;24.90;98.00
46055;DHT22;31788;6.954;-71.872;2023-01-05T04:40:50;24.90;97.80
46055;DHT22;31788;6.954;-71.872;2023-01-05T04:43:18;24.90;97.90
46055;DHT22;31788;6.954;-71.872;2023-01-05T04:45:48;24.90;98.10
46055;DHT22;31788;6.954;-71.872;2023-01-05T04:48:15;24.90;98.20
46055;DHT22;31788;6.954;-71.872;2023-01-05T04:50:42;24.90;98.20
46055;DHT22;31788;6.954;-71.872;2023-01-05T04:53:09;24.90;98.40
46055;DHT22;31788;6.954;-71.872;2023-01-05T04:55:35;24.90;98.30
46055;DHT22;31788;6.954;-71.872;2023-01-05T04:58:02;24.90;98.20
46055;DHT22;31788;6.954;-71.872;2023-01-05T05:00:29;24.90;98.20
46055;DHT22;31788;6.954;-71.872;2023-01-05T05:02:58;24.90;98.20
46055;DHT22;31788;6.954;-71.872;2023-01-05T05:05:25;24.90;98.20
46055;DHT22;31788;6.954;-71.872;2023-01-05T05:07:52;24.90;98.10
46055;DHT22;31788;6.954;-71.872;2023-01-05T05:10:19;24.90;98.10
46055;DHT22;31788;6.954;-71.872;2023-01-05T05:12:46;24.90;98.20
46055;DHT22;31788;6.954;-71.872;2023-01-05T05:15:12;24.90;98.20
46055;DHT22;31788;6.954;-71.872;2023-01-05T05:17:39;24.90;98.20
46055;DHT22;31788;6.954;-71.872;2023-01-05T05:20:06;24.90;98.30
46055;DHT22;31788;6.954;-71.872;2023-01-05T05:22:32;24.90;98.20
46055;DHT22;31788;6.954;-71.872;2023-01-05T05:24:59;24.90;98.50
46055;DHT22;31788;6.954;-71.872;2023-01-05T05:27:25;24.90;98.40
46055;DHT22;31788;6.954;-71.872;2023-01-05T05:29:51;24.90;98.40
46055;DHT22;31788;6.954;-71.872;2023-01-05T05:32:17;24.90;98.40
46055;DHT22;31788;6.954;-71.872;2023-01-05T05:34:44;24.90;98.40
46055;DHT22;31788;6.954;-71.872;2023-01-05T05:37:10;24.80;98.60
46055;DHT22;31788;6.954;-71.872;2023-01-05T05:39:36;24.80;98.30
46055;DHT22;31788;6.954;-71.872;2023-01-05T05:42:02;24.80;98.50
46055;DHT22;31788;6.954;-71.872;2023-01-05T05:44:29;24.80;98.40
46055;DHT22;31788;6.954;-71.872;2023-01-05T05:46:57;24.80;98.70
46055;DHT22;31788;6.954;-71.872;2023-01-05T05:49:23;24.70;98.70
46055;DHT22;31788;6.954;-71.872;2023-01-05T05:51:49;24.70;99.00
46055;DHT22;31788;6.954;-71.872;2023-01-05T05:54:16;24.70;99.00
46055;DHT22;31788;6.954;-71.872;2023-01-05T05:56:42;24.70;98.80
46055;DHT22;31788;6.954;-71.872;2023-01-05T05:59:08;24.70;98.90
46055;DHT22;31788;6.954;-71.872;2023-01-05T06:01:34;24.70;98.70
46055;DHT22;31788;6.954;-71.872;2023-01-05T06:04:00;24.70;98.50
46055;DHT22;31788;6.954;-71.872;2023-01-05T06:06:26;24.70;98.60
46055;DHT22;31788;6.954;-71.872;2023-01-05T06:08:52;24.70;98.80
46055;DHT22;31788;6.954;-71.872;2023-01-05T06:11:18;24.60;98.70
46055;DHT22;31788;6.954;-71.872;2023-01-05T06:13:45;24.60;98.70
46055;DHT22;31788;6.954;-71.872;2023-01-05T06:16:13;24.70;98.80
46055;DHT22;31788;6.954;-71.872;2023-01-05T06:18:39;24.70;98.90
46055;DHT22;31788;6.954;-71.872;2023-01-05T06:21:05;24.70;99.30
46055;DHT22;31788;6.954;-71.872;2023-01-05T06:23:32;24.70;99.00
46055;DHT22;31788;6.954;-71.872;2023-01-05T06:25:58;24.60;99.10
46055;DHT22;31788;6.954;-71.872;2023-01-05T06:28:24;24.60;99.10
46055;DHT22;31788;6.954;-71.872;2023-01-05T06:30:50;24.60;99.20
46055;DHT22;31788;6.954;-71.872;2023-01-05T06:33:16;24.60;99.20
46055;DHT22;31788;6.954;-71.872;2023-01-05T06:35:42;24.60;99.00
46055;DHT22;31788;6.954;-71.872;2023-01-05T06:38:09;24.60;99.10
46055;DHT22;31788;6.954;-71.872;2023-01-05T06:40:35;24.60;99.20
46055;DHT22;31788;6.954;-71.872;2023-01-05T06:43:03;24.60;99.30
46055;DHT22;31788;6.954;-71.872;2023-01-05T06:45:29;24.60;99.20
46055;DHT22;31788;6.954;-71.872;2023-01-05T06:47:55;24.60;99.30
46055;DHT22;31788;6.954;-71.872;2023-01-05T06:50:23;24.60;99.40
46055;DHT22;31788;6.954;-71.872;2023-01-05T06:52:49;24.60;99.40
46055;DHT22;31788;6.954;-71.872;2023-01-05T06:55:15;24.60;99.20
46055;DHT22;31788;6.954;-71.872;2023-01-05T06:57:41;24.60;99.10
46055;DHT22;31788;6.954;-71.872;2023-01-05T07:00:08;24.60;99.20
46055;DHT22;31788;6.954;-71.872;2023-01-05T07:02:35;24.60;99.20
46055;DHT22;31788;6.954;-71.872;2023-01-05T07:05:01;24.60;99.30
46055;DHT22;31788;6.954;-71.872;2023-01-05T07:07:27;24.60;99.30
46055;DHT22;31788;6.954;-71.872;2023-01-05T07:09:54;24.60;99.40
46055;DHT22;31788;6.954;-71.872;2023-01-05T07:12:20;24.60;99.20
46055;DHT22;31788;6.954;-71.872;2023-01-05T07:14:46;24.60;99.40
46055;DHT22;31788;6.954;-71.872;2023-01-05T07:17:12;24.60;98.80
46055;DHT22;31788;6.954;-71.872;2023-01-05T07:19:38;24.60;98.70
46055;DHT22;31788;6.954;-71.872;2023-01-05T07:22:05;24.50;99.00
46055;DHT22;31788;6.954;-71.872;2023-01-05T07:24:32;24.60;98.60
46055;DHT22;31788;6.954;-71.872;2023-01-05T07:26:59;24.50;98.50
46055;DHT22;31788;6.954;-71.872;2023-01-05T07:29:25;24.60;99.10
46055;DHT22;31788;6.954;-71.872;2023-01-05T07:31:51;24.60;99.20
46055;DHT22;31788;6.954;-71.872;2023-01-05T07:34:18;24.60;99.00
46055;DHT22;31788;6.954;-71.872;2023-01-05T07:36:46;24.60;99.40
46055;DHT22;31788;6.954;-71.872;2023-01-05T07:39:12;24.60;99.40
46055;DHT22;31788;6.954;-71.872;2023-01-05T07:41:38;24.60;99.30
46055;DHT22;31788;6.954;-71.872;2023-01-05T07:44:05;24.60;99.20
46055;DHT22;31788;6.954;-71.872;2023-01-05T07:46:31;24.60;99.30
46055;DHT22;31788;6.954;-71.872;2023-01-05T07:48:58;24.60;99.40
46055;DHT22;31788;6.954;-71.872;2023-01-05T07:51:24;24.60;99.40
46055;DHT22;31788;6.954;-71.872;2023-01-05T07:53:50;24.60;99.30
46055;DHT22;31788;6.954;-71.872;2023-01-05T07:56:18;24.60;99.20
46055;DHT22;31788;6.954;-71.872;2023-01-05T07:58:44;24.60;99.30
46055;DHT22;31788;6.954;-71.872;2023-01-05T08:01:11;24.60;99.40
46055;DHT22;31788;6.954;-71.872;2023-01-05T08:03:37;24.60;99.60
46055;DHT22;31788;6.954;-71.872;2023-01-05T08:06:06;24.60;99.40
46055;DHT22;31788;6.954;-71.872;2023-01-05T08:08:32;24.60;99.40
46055;DHT22;31788;6.954;-71.872;2023-01-05T08:10:59;24.60;99.40
46055;DHT22;31788;6.954;-71.872;2023-01-05T08:13:25;24.60;99.50
46055;DHT22;31788;6.954;-71.872;2023-01-05T08:16:09;24.60;99.60
46055;DHT22;31788;6.954;-71.872;2023-01-05T08:18:36;24.60;99.50
46055;DHT22;31788;6.954;-71.872;2023-01-05T08:21:02;24.60;99.80
46055;DHT22;31788;6.954;-71.872;2023-01-05T08:23:29;24.60;99.80
46055;DHT22;31788;6.954;-71.872;2023-01-05T08:25:56;24.60;99.70
46055;DHT22;31788;6.954;-71.872;2023-01-05T08:28:23;24.60;99.70
46055;DHT22;31788;6.954;-71.872;2023-01-05T08:30:49;24.60;99.70
46055;DHT22;31788;6.954;-71.872;2023-01-05T08:33:15;24.60;99.50
46055;DHT22;31788;6.954;-71.872;2023-01-05T08:35:42;24.60;99.40
46055;DHT22;31788;6.954;-71.872;2023-01-05T08:38:08;24.60;99.40
46055;DHT22;31788;6.954;-71.872;2023-01-05T08:40:35;24.60;99.40
46055;DHT22;31788;6.954;-71.872;2023-01-05T08:43:02;24.60;99.60
46055;DHT22;31788;6.954;-71.872;2023-01-05T08:45:28;24.60;99.60
46055;DHT22;31788;6.954;-71.872;2023-01-05T08:47:54;24.60;99.50
46055;DHT22;31788;6.954;-71.872;2023-01-05T08:50:21;24.60;99.50
46055;DHT22;31788;6.954;-71.872;2023-01-05T08:52:47;24.60;99.50
46055;DHT22;31788;6.954;-71.872;2023-01-05T08:55:13;24.60;99.40
46055;DHT22;31788;6.954;-71.872;2023-01-05T08:57:39;24.60;99.50
46055;DHT22;31788;6.954;-71.872;2023-01-05T09:00:05;24.60;99.50
46055;DHT22;31788;6.954;-71.872;2023-01-05T09:02:32;24.60;99.50
46055;DHT22;31788;6.954;-71.872;2023-01-05T09:04:58;24.60;99.40
46055;DHT22;31788;6.954;-71.872;2023-01-05T09:07:24;24.60;99.50
46055;DHT22;31788;6.954;-71.872;2023-01-05T09:09:52;24.60;99.40
46055;DHT22;31788;6.954;-71.872;2023-01-05T09:12:19;24.60;99.50
46055;DHT22;31788;6.954;-71.872;2023-01-05T09:14:45;24.60;99.50
46055;DHT22;31788;6.954;-71.872;2023-01-05T09:17:11;24.60;99.60
46055;DHT22;31788;6.954;-71.872;2023-01-05T09:19:37;24.60;99.50
46055;DHT22;31788;6.954;-71.872;2023-01-05T09:22:03;24.60;99.60
46055;DHT22;31788;6.954;-71.872;2023-01-05T09:24:29;24.60;99.50
46055;DHT22;31788;6.954;-71.872;2023-01-05T09:26:55;24.60;99.50
46055;DHT22;31788;6.954;-71.872;2023-01-05T09:29:22;24.60;99.40
46055;DHT22;31788;6.954;-71.872;2023-01-05T09:31:48;24.60;99.40
46055;DHT22;31788;6.954;-71.872;2023-01-05T09:34:14;24.60;99.20
46055;DHT22;31788;6.954;-71.872;2023-01-05T09:36:41;24.60;99.10
46055;DHT22;31788;6.954;-71.872;2023-01-05T09:39:07;24.60;99.10
46055;DHT22;31788;6.954;-71.872;2023-01-05T09:41:41;24.60;99.00
46055;DHT22;31788;6.954;-71.872;2023-01-05T09:44:11;24.60;99.00
46055;DHT22;31788;6.954;-71.872;2023-01-05T09:46:39;24.60;98.90
46055;DHT22;31788;6.954;-71.872;2023-01-05T09:49:09;24.60;99.00
46055;DHT22;31788;6.954;-71.872;2023-01-05T09:51:37;24.60;98.90
46055;DHT22;31788;6.954;-71.872;2023-01-05T09:54:03;24.60;98.90
46055;DHT22;31788;6.954;-71.872;2023-01-05T09:56:36;24.60;98.80
46055;DHT22;31788;6.954;-71.872;2023-01-05T10:01:39;24.60;98.70
46055;DHT22;31788;6.954;-71.872;2023-01-05T10:04:10;24.60;98.70
46055;DHT22;31788;6.954;-71.872;2023-01-05T10:06:46;24.60;98.70
46055;DHT22;31788;6.954;-71.872;2023-01-05T10:09:23;24.60;98.70
46055;DHT22;31788;6.954;-71.872;2023-01-05T10:12:24;24.60;98.70
46055;DHT22;31788;6.954;-71.872;2023-01-05T10:15:11;24.60;98.50
46055;DHT22;31788;6.954;-71.872;2023-01-05T10:17:37;24.60;98.50
46055;DHT22;31788;6.954;-71.872;2023-01-05T10:22:51;24.60;98.60
46055;DHT22;31788;6.954;-71.872;2023-01-05T10:25:38;24.70;98.70
46055;DHT22;31788;6.954;-71.872;2023-01-05T10:28:30;24.60;98.60
46055;DHT22;31788;6.954;-71.872;2023-01-05T10:31:01;24.60;98.50
46055;DHT22;31788;6.954;-71.872;2023-01-05T10:36:18;24.70;98.50
46055;DHT22;31788;6.954;-71.872;2023-01-05T10:39:01;24.70;98.70
46055;DHT22;31788;6.954;-71.872;2023-01-05T10:47:20;24.70;98.30
46055;DHT22;31788;6.954;-71.872;2023-01-05T10:49:48;24.70;98.40
46055;DHT22;31788;6.954;-71.872;2023-01-05T10:52:16;24.70;98.40
46055;DHT22;31788;6.954;-71.872;2023-01-05T11:00:08;24.80;98.50
46055;DHT22;31788;6.954;-71.872;2023-01-05T11:07:53;24.80;98.10
46055;DHT22;31788;6.954;-71.872;2023-01-05T11:10:24;24.70;98.20
46055;DHT22;31788;6.954;-71.872;2023-01-05T11:13:02;24.80;98.30
46055;DHT22;31788;6.954;-71.872;2023-01-05T11:15:33;24.80;98.30
46055;DHT22;31788;6.954;-71.872;2023-01-05T11:18:01;24.80;98.30
46055;DHT22;31788;6.954;-71.872;2023-01-05T11:20:28;24.80;98.20
46055;DHT22;31788;6.954;-71.872;2023-01-05T11:22:55;24.80;98.20
46055;DHT22;31788;6.954;-71.872;2023-01-05T11:25:27;24.80;98.20
46055;DHT22;31788;6.954;-71.872;2023-01-05T11:28:14;24.70;98.10
46055;DHT22;31788;6.954;-71.872;2023-01-05T11:30:58;24.80;98.10
46055;DHT22;31788;6.954;-71.872;2023-01-05T11:33:28;24.80;97.90
46055;DHT22;31788;6.954;-71.872;2023-01-05T11:35:56;24.80;98.00
46055;DHT22;31788;6.954;-71.872;2023-01-05T11:38:28;24.80;98.00
46055;DHT22;31788;6.954;-71.872;2023-01-05T11:40:57;24.80;98.00
46055;DHT22;31788;6.954;-71.872;2023-01-05T11:43:25;24.80;98.10
46055;DHT22;31788;6.954;-71.872;2023-01-05T11:45:54;24.80;97.90
46055;DHT22;31788;6.954;-71.872;2023-01-05T11:48:28;24.80;97.90
46055;DHT22;31788;6.954;-71.872;2023-01-05T11:50:56;24.80;98.00
46055;DHT22;31788;6.954;-71.872;2023-01-05T11:53:45;24.70;97.60
46055;DHT22;31788;6.954;-71.872;2023-01-05T11:56:20;24.80;97.50
46055;DHT22;31788;6.954;-71.872;2023-01-05T11:58:49;24.80;97.50
46055;DHT22;31788;6.954;-71.872;2023-01-05T12:09:38;24.90;97.20
46055;DHT22;31788;6.954;-71.872;2023-01-05T12:12:12;24.90;97.20
46055;DHT22;31788;6.954;-71.872;2023-01-05T12:23:07;25.00;97.20
46055;DHT22;31788;6.954;-71.872;2023-01-05T12:25:53;25.00;97.30
46055;DHT22;31788;6.954;-71.872;2023-01-05T12:28:42;25.00;97.20
46055;DHT22;31788;6.954;-71.872;2023-01-05T12:31:28;25.10;97.20
46055;DHT22;31788;6.954;-71.872;2023-01-05T12:37:21;25.30;97.20
46055;DHT22;31788;6.954;-71.872;2023-01-05T12:40:22;25.30;97.20
46055;DHT22;31788;6.954;-71.872;2023-01-05T12:43:04;25.40;97.20
46055;DHT22;31788;6.954;-71.872;2023-01-05T12:48:26;25.50;96.90
46055;DHT22;31788;6.954;-71.872;2023-01-05T12:53:43;25.60;97.00
46055;DHT22;31788;6.954;-71.872;2023-01-05T12:56:23;25.60;96.90
46055;DHT22;31788;6.954;-71.872;2023-01-05T13:01:26;25.70;96.70
46055;DHT22;31788;6.954;-71.872;2023-01-05T13:07:19;25.60;96.70
46055;DHT22;31788;6.954;-71.872;2023-01-05T13:09:56;25.70;96.90
46055;DHT22;31788;6.954;-71.872;2023-01-05T13:12:22;25.70;96.80
46055;DHT22;31788;6.954;-71.872;2023-01-05T13:15:22;25.70;96.70
46055;DHT22;31788;6.954;-71.872;2023-01-05T13:18:00;25.70;96.90
46055;DHT22;31788;6.954;-71.872;2023-01-05T13:20:49;25.70;96.90
46055;DHT22;31788;6.954;-71.872;2023-01-05T13:23:24;25.70;96.90
46055;DHT22;31788;6.954;-71.872;2023-01-05T13:28:23;25.70;97.00
46055;DHT22;31788;6.954;-71.872;2023-01-05T13:39:54;25.70;97.20
46055;DHT22;31788;6.954;-71.872;2023-01-05T13:53:16;25.80;97.20
46055;DHT22;31788;6.954;-71.872;2023-01-05T13:55:56;25.80;97.20
46055;DHT22;31788;6.954;-71.872;2023-01-05T13:58:33;25.80;97.20
46055;DHT22;31788;6.954;-71.872;2023-01-05T14:01:05;25.80;97.30
46055;DHT22;31788;6.954;-71.872;2023-01-05T14:03:39;25.80;97.20
46055;DHT22;31788;6.954;-71.872;2023-01-05T14:06:19;25.80;97.20
46055;DHT22;31788;6.954;-71.872;2023-01-05T14:08:52;25.80;97.40
46055;DHT22;31788;6.954;-71.872;2023-01-05T14:11:24;25.80;97.40
46055;DHT22;31788;6.954;-71.872;2023-01-05T14:14:24;25.90;97.40
46055;DHT22;31788;6.954;-71.872;2023-01-05T14:16:54;25.90;97.20
46055;DHT22;31788;6.954;-71.872;2023-01-05T14:22:21;25.90;97.40
46055;DHT22;31788;6.954;-71.872;2023-01-05T14:24:47;25.90;97.50
46055;DHT22;31788;6.954;-71.872;2023-01-05T14:27:16;25.90;97.50
46055;DHT22;31788;6.954;-71.872;2023-01-05T14:32:23;25.90;97.50
46055;DHT22;31788;6.954;-71.872;2023-01-05T14:34:53;25.90;97.60
46055;DHT22;31788;6.954;-71.872;2023-01-05T14:37:48;25.90;97.50
46055;DHT22;31788;6.954;-71.872;2023-01-05T14:42:46;26.00;97.30
46055;DHT22;31788;6.954;-71.872;2023-01-05T14:45:23;25.90;97.40
46055;DHT22;31788;6.954;-71.872;2023-01-05T14:47:52;26.00;97.40
46055;DHT22;31788;6.954;-71.872;2023-01-05T14:50:38;26.00;97.40
46055;DHT22;31788;6.954;-71.872;2023-01-05T14:55:41;26.00;97.50
46055;DHT22;31788;6.954;-71.872;2023-01-05T15:06:33;26.00;97.50
46055;DHT22;31788;6.954;-71.872;2023-01-05T15:09:23;26.00;97.40
46055;DHT22;31788;6.954;-71.872;2023-01-05T15:12:05;26.10;97.40
46055;DHT22;31788;6.954;-71.872;2023-01-05T15:14:58;26.10;97.40
46055;DHT22;31788;6.954;-71.872;2023-01-05T15:17:53;26.10;97.30
46055;DHT22;31788;6.954;-71.872;2023-01-05T15:36:37;26.30;97.60
46055;DHT22;31788;6.954;-71.872;2023-01-05T15:39:31;26.30;97.60
46055;DHT22;31788;6.954;-71.872;2023-01-05T15:42:04;26.40;97.60
46055;DHT22;31788;6.954;-71.872;2023-01-05T15:44:36;26.40;97.40
46055;DHT22;31788;6.954;-71.872;2023-01-05T15:47:08;26.40;97.60
46055;DHT22;31788;6.954;-71.872;2023-01-05T15:49:35;26.50;97.60
46055;DHT22;31788;6.954;-71.872;2023-01-05T15:52:03;26.40;97.70
46055;DHT22;31788;6.954;-71.872;2023-01-05T15:54:31;26.50;97.70
46055;DHT22;31788;6.954;-71.872;2023-01-05T15:57:00;26.50;97.40
46055;DHT22;31788;6.954;-71.872;2023-01-05T15:59:30;26.50;97.60
46055;DHT22;31788;6.954;-71.872;2023-01-05T16:01:58;26.50;97.60
46055;DHT22;31788;6.954;-71.872;2023-01-05T16:04:25;26.60;97.50
46055;DHT22;31788;6.954;-71.872;2023-01-05T16:07:03;26.60;97.60
46055;DHT22;31788;6.954;-71.872;2023-01-05T16:09:36;26.60;97.30
46055;DHT22;31788;6.954;-71.872;2023-01-05T16:12:05;26.60;97.30
46055;DHT22;31788;6.954;-71.872;2023-01-05T16:17:20;26.60;97.50
46055;DHT22;31788;6.954;-71.872;2023-01-05T16:19:48;26.70;97.30
46055;DHT22;31788;6.954;-71.872;2023-01-05T16:24:49;26.70;97.20
46055;DHT22;31788;6.954;-71.872;2023-01-05T16:27:17;26.80;97.00
46055;DHT22;31788;6.954;-71.872;2023-01-05T16:29:44;26.80;97.10
46055;DHT22;31788;6.954;-71.872;2023-01-05T16:37:40;26.80;97.20
46055;DHT22;31788;6.954;-71.872;2023-01-05T16:40:17;26.80;97.20
46055;DHT22;31788;6.954;-71.872;2023-01-05T16:42:44;26.90;96.90
46055;DHT22;31788;6.954;-71.872;2023-01-05T16:45:19;26.90;96.90
46055;DHT22;31788;6.954;-71.872;2023-01-05T16:47:47;26.90;97.00
46055;DHT22;31788;6.954;-71.872;2023-01-05T16:55:19;26.90;97.00
46055;DHT22;31788;6.954;-71.872;2023-01-05T16:57:46;26.90;97.10
46055;DHT22;31788;6.954;-71.872;2023-01-05T17:02:52;26.80;97.20
46055;DHT22;31788;6.954;-71.872;2023-01-05T17:05:22;26.80;97.20
46055;DHT22;31788;6.954;-71.872;2023-01-05T17:07:50;26.90;97.10
46055;DHT22;31788;6.954;-71.872;2023-01-05T17:10:23;26.80;97.00
46055;DHT22;31788;6.954;-71.872;2023-01-05T17:12:59;26.80;97.10
46055;DHT22;31788;6.954;-71.872;2023-01-05T17:15:27;26.90;97.10
46055;DHT22;31788;6.954;-71.872;2023-01-05T17:17:55;26.80;97.00
46055;DHT22;31788;6.954;-71.872;2023-01-05T17:20:26;26.80;97.00
46055;DHT22;31788;6.954;-71.872;2023-01-05T17:22:53;26.90;96.60
46055;DHT22;31788;6.954;-71.872;2023-01-05T17:25:20;26.90;96.50
46055;DHT22;31788;6.954;-71.872;2023-01-05T17:27:47;26.90;96.70
46055;DHT22;31788;6.954;-71.872;2023-01-05T17:30:22;26.90;96.30
46055;DHT22;31788;6.954;-71.872;2023-01-05T17:32:48;26.90;96.30
46055;DHT22;31788;6.954;-71.872;2023-01-05T17:35:17;27.00;96.40
46055;DHT22;31788;6.954;-71.872;2023-01-05T17:37:43;27.00;96.50
46055;DHT22;31788;6.954;-71.872;2023-01-05T17:40:11;27.00;96.00
46055;DHT22;31788;6.954;-71.872;2023-01-05T17:42:40;27.00;95.90
46055;DHT22;31788;6.954;-71.872;2023-01-05T17:45:15;27.00;96.10
46055;DHT22;31788;6.954;-71.872;2023-01-05T17:47:42;27.00;96.00
46055;DHT22;31788;6.954;-71.872;2023-01-05T17:50:13;27.00;96.20
46055;DHT22;31788;6.954;-71.872;2023-01-05T17:52:40;27.00;96.10
46055;DHT22;31788;6.954;-71.872;2023-01-05T17:55:06;27.00;96.10
46055;DHT22;31788;6.954;-71.872;2023-01-05T17:57:32;27.10;95.90
46055;DHT22;31788;6.954;-71.872;2023-01-05T17:59:58;27.10;95.90
46055;DHT22;31788;6.954;-71.872;2023-01-05T18:02:27;27.10;96.10
46055;DHT22;31788;6.954;-71.872;2023-01-05T18:04:54;27.10;96.10
46055;DHT22;31788;6.954;-71.872;2023-01-05T18:07:21;27.10;95.80
46055;DHT22;31788;6.954;-71.872;2023-01-05T18:09:47;27.10;95.80
46055;DHT22;31788;6.954;-71.872;2023-01-05T18:12:13;27.10;95.70
46055;DHT22;31788;6.954;-71.872;2023-01-05T18:14:39;27.20;95.90
46055;DHT22;31788;6.954;-71.872;2023-01-05T18:17:06;27.20;95.80
46055;DHT22;31788;6.954;-71.872;2023-01-05T18:19:32;27.20;95.70
46055;DHT22;31788;6.954;-71.872;2023-01-05T18:21:58;27.20;95.60